sensor_id;sensor_type;location;lat;lon;timestamp;pressure;altitude;pressure_sealevel;temperature;humidity
72124;BME280;63818;37.134;-8.548;2023-08-07T00:03:11;100734.8;;;31.1;30.1
72124;BME280;63818;37.134;-8.548;2023-08-07T00:07:57;100741.0;;;31.2;30.9
72124;BME280;63818;37.134;-8.548;2023-08-07T00:12:43;100745.8;;;31.0;31.0
72124;BME280;63818;37.134;-8.548;2023-08-07T00:17:29;100748.5;;;31.0;31.5
72124;BME280;63818;37.134;-8.548;2023-08-07T00:22:14;100749.9;;;30.9;31.5
72124;BME280;63818;37.134;-8.548;2023-08-07T00:27:01;100750.4;;;30.7;30.7
72124;BME280;63818;37.134;-8.548;2023-08-07T00:31:47;100750.6;;;30.8;31.0
72124;BME280;63818;37.134;-8.548;2023-08-07T00:36:33;100753.7;;;30.8;30.5
72124;BME280;63818;37.134;-8.548;2023-08-07T00:41:20;100751.0;;;30.6;30.7
72124;BME280;63818;37.134;-8.548;2023-08-07T00:46:08;100754.1;;;30.7;30.8
72124;BME280;63818;37.134;-8.548;2023-08-07T00:50:54;100750.2;;;30.5;29.7
72124;BME280;63818;37.134;-8.548;2023-08-07T00:55:41;100749.5;;;30.5;30.1
72124;BME280;63818;37.134;-8.548;2023-08-07T01:00:29;100754.9;;;30.3;30.4
72124;BME280;63818;37.134;-8.548;2023-08-07T01:05:15;100748.0;;;30.2;31.0
72124;BME280;63818;37.134;-8.548;2023-08-07T01:10:01;100751.7;;;30.0;31.2
72124;BME280;63818;37.134;-8.548;2023-08-07T01:14:55;100757.8;;;30.1;31.5
72124;BME280;63818;37.134;-8.548;2023-08-07T01:19:45;100765.3;;;29.8;34.3
72124;BME280;63818;37.134;-8.548;2023-08-07T01:24:31;100771.6;;;29.8;34.7
72124;BME280;63818;37.134;-8.548;2023-08-07T01:29:22;100782.7;;;29.8;34.8
72124;BME280;63818;37.134;-8.548;2023-08-07T01:34:13;100779.7;;;29.9;34.1
72124;BME280;63818;37.134;-8.548;2023-08-07T01:39:03;100792.6;;;29.8;34.3
72124;BME280;63818;37.134;-8.548;2023-08-07T01:43:50;100798.3;;;29.7;33.2
72124;BME280;63818;37.134;-8.548;2023-08-07T01:48:36;100787.5;;;29.8;32.4
72124;BME280;63818;37.134;-8.548;2023-08-07T01:53:22;100792.0;;;29.6;31.8
72124;BME280;63818;37.134;-8.548;2023-08-07T01:58:08;100783.7;;;29.7;32.4
72124;BME280;63818;37.134;-8.548;2023-08-07T02:02:53;100783.4;;;29.7;32.3
72124;BME280;63818;37.134;-8.548;2023-08-07T02:07:39;100783.0;;;29.7;32.8
72124;BME280;63818;37.134;-8.548;2023-08-07T02:12:25;100802.4;;;29.7;32.8
72124;BME280;63818;37.134;-8.548;2023-08-07T02:17:11;100803.0;;;29.6;33.1
72124;BME280;63818;37.134;-8.548;2023-08-07T02:21:57;100809.4;;;29.5;33.3
72124;BME280;63818;37.134;-8.548;2023-08-07T02:26:43;100811.2;;;29.5;33.8
72124;BME280;63818;37.134;-8.548;2023-08-07T02:31:30;100808.6;;;29.4;33.6
72124;BME280;63818;37.134;-8.548;2023-08-07T02:36:16;100807.0;;;29.5;33.2
72124;BME280;63818;37.134;-8.548;2023-08-07T02:41:02;100808.8;;;29.4;33.3
72124;BME280;63818;37.134;-8.548;2023-08-07T02:45:47;100806.5;;;29.3;33.2
72124;BME280;63818;37.134;-8.548;2023-08-07T02:50:33;100804.3;;;29.3;33.4
72124;BME280;63818;37.134;-8.548;2023-08-07T02:55:19;100802.7;;;29.3;33.2
72124;BME280;63818;37.134;-8.548;2023-08-07T03:00:06;100813.9;;;29.2;33.1
72124;BME280;63818;37.134;-8.548;2023-08-07T03:04:52;100795.2;;;29.3;32.9
72124;BME280;63818;37.134;-8.548;2023-08-07T03:09:37;100799.9;;;29.3;32.6
72124;BME280;63818;37.134;-8.548;2023-08-07T03:14:23;100789.3;;;29.2;32.3
72124;BME280;63818;37.134;-8.548;2023-08-07T03:19:09;100788.4;;;29.3;32.5
72124;BME280;63818;37.134;-8.548;2023-08-07T03:23:58;100793.3;;;29.2;32.2
72124;BME280;63818;37.134;-8.548;2023-08-07T03:28:44;100801.9;;;29.1;31.9
72124;BME280;63818;37.134;-8.548;2023-08-07T03:33:30;100802.5;;;29.0;32.2
72124;BME280;63818;37.134;-8.548;2023-08-07T03:38:15;100796.4;;;29.1;32.1
72124;BME280;63818;37.134;-8.548;2023-08-07T03:43:02;100805.7;;;29.1;32.7
72124;BME280;63818;37.134;-8.548;2023-08-07T03:47:48;100789.7;;;29.1;33.1
72124;BME280;63818;37.134;-8.548;2023-08-07T03:52:34;100792.7;;;29.0;32.9
72124;BME280;63818;37.134;-8.548;2023-08-07T03:57:20;100798.3;;;29.0;33.0
72124;BME280;63818;37.134;-8.548;2023-08-07T04:02:06;100797.9;;;29.0;33.5
72124;BME280;63818;37.134;-8.548;2023-08-07T04:06:52;100793.4;;;29.0;33.2
72124;BME280;63818;37.134;-8.548;2023-08-07T04:11:40;100797.4;;;29.0;32.9
72124;BME280;63818;37.134;-8.548;2023-08-07T04:16:25;100790.7;;;28.8;33.2
72124;BME280;63818;37.134;-8.548;2023-08-07T04:21:12;100796.2;;;28.8;33.1
72124;BME280;63818;37.134;-8.548;2023-08-07T04:25:59;100781.0;;;28.8;33.0
72124;BME280;63818;37.134;-8.548;2023-08-07T04:30:49;100783.7;;;28.8;33.1
72124;BME280;63818;37.134;-8.548;2023-08-07T04:35:35;100782.9;;;28.8;33.9
72124;BME280;63818;37.134;-8.548;2023-08-07T04:40:21;100779.5;;;28.9;33.7
72124;BME280;63818;37.134;-8.548;2023-08-07T04:45:07;100773.7;;;28.8;34.3
72124;BME280;63818;37.134;-8.548;2023-08-07T04:49:53;100769.7;;;28.7;34.9
72124;BME280;63818;37.134;-8.548;2023-08-07T04:54:39;100764.8;;;28.5;35.0
72124;BME280;63818;37.134;-8.548;2023-08-07T04:59:26;100767.8;;;28.5;35.3
72124;BME280;63818;37.134;-8.548;2023-08-07T05:04:11;100761.2;;;28.4;35.5
72124;BME280;63818;37.134;-8.548;2023-08-07T05:08:57;100767.5;;;28.4;35.2
72124;BME280;63818;37.134;-8.548;2023-08-07T05:13:46;100760.4;;;28.4;35.4
72124;BME280;63818;37.134;-8.548;2023-08-07T05:18:32;100766.0;;;28.4;35.6
72124;BME280;63818;37.134;-8.548;2023-08-07T05:23:18;100767.4;;;28.3;35.8
72124;BME280;63818;37.134;-8.548;2023-08-07T05:28:04;100764.1;;;28.3;35.7
72124;BME280;63818;37.134;-8.548;2023-08-07T05:32:50;100761.5;;;28.3;35.9
72124;BME280;63818;37.134;-8.548;2023-08-07T05:37:36;100758.0;;;28.2;35.6
72124;BME280;63818;37.134;-8.548;2023-08-07T05:42:22;100777.0;;;28.2;36.1
72124;BME280;63818;37.134;-8.548;2023-08-07T05:47:09;100777.0;;;28.0;35.5
72124;BME280;63818;37.134;-8.548;2023-08-07T05:51:55;100781.5;;;27.9;35.2
72124;BME280;63818;37.134;-8.548;2023-08-07T05:56:43;100787.5;;;27.9;35.4
72124;BME280;63818;37.134;-8.548;2023-08-07T06:01:30;100791.0;;;27.9;35.6
72124;BME280;63818;37.134;-8.548;2023-08-07T06:06:16;100795.3;;;27.8;35.5
72124;BME280;63818;37.134;-8.548;2023-08-07T06:11:02;100806.9;;;27.8;35.5
72124;BME280;63818;37.134;-8.548;2023-08-07T06:15:49;100806.6;;;27.8;35.3
72124;BME280;63818;37.134;-8.548;2023-08-07T06:20:38;100802.2;;;27.8;35.5
72124;BME280;63818;37.134;-8.548;2023-08-07T06:25:24;100803.5;;;27.8;35.5
72124;BME280;63818;37.134;-8.548;2023-08-07T06:30:15;100800.4;;;28.0;36.0
72124;BME280;63818;37.134;-8.548;2023-08-07T06:35:05;100809.4;;;28.0;35.3
72124;BME280;63818;37.134;-8.548;2023-08-07T06:39:51;100804.7;;;28.0;36.0
72124;BME280;63818;37.134;-8.548;2023-08-07T06:44:46;100810.8;;;28.1;35.8
72124;BME280;63818;37.134;-8.548;2023-08-07T06:49:32;100822.5;;;28.2;35.8
72124;BME280;63818;37.134;-8.548;2023-08-07T06:54:21;100813.4;;;28.2;35.6
72124;BME280;63818;37.134;-8.548;2023-08-07T06:59:09;100826.8;;;28.2;35.6
72124;BME280;63818;37.134;-8.548;2023-08-07T07:03:55;100827.9;;;28.2;35.5
72124;BME280;63818;37.134;-8.548;2023-08-07T07:08:41;100826.8;;;28.2;35.3
72124;BME280;63818;37.134;-8.548;2023-08-07T07:13:27;100830.0;;;28.1;35.7
72124;BME280;63818;37.134;-8.548;2023-08-07T07:18:13;100834.0;;;28.1;36.2
72124;BME280;63818;37.134;-8.548;2023-08-07T07:22:59;100839.0;;;28.2;36.7
72124;BME280;63818;37.134;-8.548;2023-08-07T07:27:45;100845.7;;;28.2;35.4
72124;BME280;63818;37.134;-8.548;2023-08-07T07:32:31;100840.2;;;28.2;35.8
72124;BME280;63818;37.134;-8.548;2023-08-07T07:37:17;100848.8;;;28.2;35.4
72124;BME280;63818;37.134;-8.548;2023-08-07T07:42:03;100845.5;;;28.3;35.3
72124;BME280;63818;37.134;-8.548;2023-08-07T07:46:50;100840.6;;;28.4;35.1
72124;BME280;63818;37.134;-8.548;2023-08-07T07:51:39;100842.3;;;28.5;35.5
72124;BME280;63818;37.134;-8.548;2023-08-07T07:56:26;100843.7;;;28.6;34.8
72124;BME280;63818;37.134;-8.548;2023-08-07T08:01:12;100840.8;;;28.7;34.7
72124;BME280;63818;37.134;-8.548;2023-08-07T08:05:58;100841.3;;;28.8;34.3
72124;BME280;63818;37.134;-8.548;2023-08-07T08:10:45;100851.7;;;28.9;34.2
72124;BME280;63818;37.134;-8.548;2023-08-07T08:15:31;100841.6;;;29.0;33.6
72124;BME280;63818;37.134;-8.548;2023-08-07T08:20:17;100833.2;;;29.1;33.0
72124;BME280;63818;37.134;-8.548;2023-08-07T08:25:03;100844.6;;;29.1;31.9
72124;BME280;63818;37.134;-8.548;2023-08-07T08:29:50;100837.8;;;29.2;31.9
72124;BME280;63818;37.134;-8.548;2023-08-07T08:34:35;100849.0;;;29.3;31.5
72124;BME280;63818;37.134;-8.548;2023-08-07T08:39:22;100864.2;;;29.4;31.5
72124;BME280;63818;37.134;-8.548;2023-08-07T08:44:12;100865.2;;;29.4;31.7
72124;BME280;63818;37.134;-8.548;2023-08-07T08:49:00;100875.6;;;29.4;31.9
72124;BME280;63818;37.134;-8.548;2023-08-07T08:53:47;100877.0;;;29.4;32.0
72124;BME280;63818;37.134;-8.548;2023-08-07T08:58:34;100868.9;;;29.4;31.6
72124;BME280;63818;37.134;-8.548;2023-08-07T09:03:20;100880.7;;;29.4;32.2
72124;BME280;63818;37.134;-8.548;2023-08-07T09:08:07;100895.6;;;29.5;32.9
72124;BME280;63818;37.134;-8.548;2023-08-07T09:13:00;100895.9;;;29.5;33.2
72124;BME280;63818;37.134;-8.548;2023-08-07T09:17:47;100900.2;;;29.5;33.0
72124;BME280;63818;37.134;-8.548;2023-08-07T09:22:34;100896.2;;;29.5;32.5
72124;BME280;63818;37.134;-8.548;2023-08-07T09:27:25;100900.6;;;29.5;32.8
72124;BME280;63818;37.134;-8.548;2023-08-07T09:32:14;100896.4;;;29.4;33.3
72124;BME280;63818;37.134;-8.548;2023-08-07T09:37:03;100901.1;;;29.5;33.6
72124;BME280;63818;37.134;-8.548;2023-08-07T09:41:52;100902.3;;;29.5;34.2
72124;BME280;63818;37.134;-8.548;2023-08-07T09:46:44;100901.0;;;29.5;34.8
72124;BME280;63818;37.134;-8.548;2023-08-07T09:51:46;100897.9;;;29.5;35.4
72124;BME280;63818;37.134;-8.548;2023-08-07T09:56:32;100898.0;;;29.6;35.5
72124;BME280;63818;37.134;-8.548;2023-08-07T10:01:20;100912.9;;;29.7;35.2
72124;BME280;63818;37.134;-8.548;2023-08-07T10:06:09;100919.0;;;29.8;35.3
72124;BME280;63818;37.134;-8.548;2023-08-07T10:10:56;100924.5;;;29.6;36.9
72124;BME280;63818;37.134;-8.548;2023-08-07T10:15:46;100942.6;;;29.5;37.9
72124;BME280;63818;37.134;-8.548;2023-08-07T10:20:34;100945.1;;;29.6;39.7
72124;BME280;63818;37.134;-8.548;2023-08-07T10:25:21;100945.6;;;29.6;42.3
72124;BME280;63818;37.134;-8.548;2023-08-07T10:30:14;100942.8;;;29.4;41.4
72124;BME280;63818;37.134;-8.548;2023-08-07T10:35:05;100949.1;;;29.6;40.7
72124;BME280;63818;37.134;-8.548;2023-08-07T10:40:14;100944.5;;;29.5;39.7
72124;BME280;63818;37.134;-8.548;2023-08-07T10:45:00;100962.0;;;29.5;40.7
72124;BME280;63818;37.134;-8.548;2023-08-07T10:49:46;100958.8;;;29.5;41.9
72124;BME280;63818;37.134;-8.548;2023-08-07T10:54:36;100958.8;;;29.5;42.8
72124;BME280;63818;37.134;-8.548;2023-08-07T10:59:27;100961.4;;;29.5;42.4
72124;BME280;63818;37.134;-8.548;2023-08-07T11:04:14;100969.2;;;29.3;43.5
72124;BME280;63818;37.134;-8.548;2023-08-07T11:09:02;100986.1;;;29.5;44.2
72124;BME280;63818;37.134;-8.548;2023-08-07T11:13:49;100989.1;;;29.4;44.3
72124;BME280;63818;37.134;-8.548;2023-08-07T11:18:37;100999.7;;;29.2;46.8
72124;BME280;63818;37.134;-8.548;2023-08-07T11:23:27;101004.9;;;29.2;48.4
72124;BME280;63818;37.134;-8.548;2023-08-07T11:28:13;101012.6;;;29.1;49.2
72124;BME280;63818;37.134;-8.548;2023-08-07T11:33:01;101001.7;;;29.2;49.2
72124;BME280;63818;37.134;-8.548;2023-08-07T11:37:48;101006.7;;;29.3;47.9
72124;BME280;63818;37.134;-8.548;2023-08-07T11:42:36;100992.8;;;29.4;47.3
72124;BME280;63818;37.134;-8.548;2023-08-07T11:47:22;100997.7;;;29.5;48.6
72124;BME280;63818;37.134;-8.548;2023-08-07T11:52:08;101004.4;;;29.4;49.6
72124;BME280;63818;37.134;-8.548;2023-08-07T11:56:55;101009.4;;;29.3;51.2
72124;BME280;63818;37.134;-8.548;2023-08-07T12:01:50;101001.5;;;29.3;52.1
72124;BME280;63818;37.134;-8.548;2023-08-07T12:06:53;101015.4;;;29.5;52.3
72124;BME280;63818;37.134;-8.548;2023-08-07T12:11:39;101010.6;;;29.4;52.7
72124;BME280;63818;37.134;-8.548;2023-08-07T12:16:25;101009.9;;;29.5;53.0
72124;BME280;63818;37.134;-8.548;2023-08-07T12:21:14;100998.8;;;29.5;52.6
72124;BME280;63818;37.134;-8.548;2023-08-07T12:26:00;101007.2;;;29.6;53.5
72124;BME280;63818;37.134;-8.548;2023-08-07T12:30:47;101006.3;;;29.5;54.2
72124;BME280;63818;37.134;-8.548;2023-08-07T12:35:33;100992.9;;;29.5;55.1
72124;BME280;63818;37.134;-8.548;2023-08-07T12:40:19;100997.1;;;29.3;55.8
72124;BME280;63818;37.134;-8.548;2023-08-07T12:45:06;101019.4;;;29.1;57.0
72124;BME280;63818;37.134;-8.548;2023-08-07T12:49:52;101010.4;;;29.1;57.4
72124;BME280;63818;37.134;-8.548;2023-08-07T12:54:38;101009.7;;;29.0;57.5
72124;BME280;63818;37.134;-8.548;2023-08-07T12:59:23;101022.8;;;29.0;57.6
72124;BME280;63818;37.134;-8.548;2023-08-07T13:04:09;101027.6;;;29.1;57.4
72124;BME280;63818;37.134;-8.548;2023-08-07T13:08:55;101038.7;;;29.1;57.2
72124;BME280;63818;37.134;-8.548;2023-08-07T13:13:41;101038.5;;;29.0;57.7
72124;BME280;63818;37.134;-8.548;2023-08-07T13:18:27;101030.7;;;29.2;57.8
72124;BME280;63818;37.134;-8.548;2023-08-07T13:23:14;101033.6;;;29.1;58.3
72124;BME280;63818;37.134;-8.548;2023-08-07T13:27:59;101028.1;;;29.3;57.8
72124;BME280;63818;37.134;-8.548;2023-08-07T13:32:45;101025.2;;;29.4;57.7
72124;BME280;63818;37.134;-8.548;2023-08-07T13:37:31;101035.0;;;29.6;57.5
72124;BME280;63818;37.134;-8.548;2023-08-07T13:42:17;101030.3;;;29.5;57.9
72124;BME280;63818;37.134;-8.548;2023-08-07T13:47:04;101028.2;;;29.8;57.5
72124;BME280;63818;37.134;-8.548;2023-08-07T13:51:50;101028.9;;;29.8;57.5
72124;BME280;63818;37.134;-8.548;2023-08-07T13:56:38;101022.3;;;29.8;57.7
72124;BME280;63818;37.134;-8.548;2023-08-07T14:01:24;101025.6;;;29.5;58.4
72124;BME280;63818;37.134;-8.548;2023-08-07T14:06:10;101026.3;;;29.6;58.7
72124;BME280;63818;37.134;-8.548;2023-08-07T14:10:56;101012.1;;;29.6;59.0
72124;BME280;63818;37.134;-8.548;2023-08-07T14:15:42;101012.0;;;30.0;58.0
72124;BME280;63818;37.134;-8.548;2023-08-07T14:20:28;101000.3;;;30.0;57.9
72124;BME280;63818;37.134;-8.548;2023-08-07T14:25:15;100989.1;;;30.2;56.8
72124;BME280;63818;37.134;-8.548;2023-08-07T14:30:01;100990.9;;;30.1;57.1
72124;BME280;63818;37.134;-8.548;2023-08-07T14:34:47;100985.7;;;30.2;58.8
72124;BME280;63818;37.134;-8.548;2023-08-07T14:39:33;100984.6;;;30.1;58.1
72124;BME280;63818;37.134;-8.548;2023-08-07T14:44:19;100980.2;;;30.3;57.0
72124;BME280;63818;37.134;-8.548;2023-08-07T14:49:05;100975.1;;;30.4;56.6
72124;BME280;63818;37.134;-8.548;2023-08-07T14:53:53;100969.6;;;30.4;56.5
72124;BME280;63818;37.134;-8.548;2023-08-07T14:58:39;100976.0;;;30.4;56.5
72124;BME280;63818;37.134;-8.548;2023-08-07T15:03:26;100973.0;;;30.6;56.1
72124;BME280;63818;37.134;-8.548;2023-08-07T15:08:12;100964.7;;;30.9;55.4
72124;BME280;63818;37.134;-8.548;2023-08-07T15:12:57;100955.6;;;30.9;55.0
72124;BME280;63818;37.134;-8.548;2023-08-07T15:17:46;100954.9;;;31.0;55.2
72124;BME280;63818;37.134;-8.548;2023-08-07T15:22:35;100960.6;;;31.2;54.5
72124;BME280;63818;37.134;-8.548;2023-08-07T15:27:20;100954.8;;;31.0;54.6
72124;BME280;63818;37.134;-8.548;2023-08-07T15:32:07;100950.3;;;30.9;55.1
72124;BME280;63818;37.134;-8.548;2023-08-07T15:36:53;100952.0;;;31.5;53.6
72124;BME280;63818;37.134;-8.548;2023-08-07T15:41:39;100953.8;;;31.5;53.3
72124;BME280;63818;37.134;-8.548;2023-08-07T15:46:28;100958.2;;;31.5;53.8
72124;BME280;63818;37.134;-8.548;2023-08-07T15:51:13;100948.1;;;32.0;52.6
72124;BME280;63818;37.134;-8.548;2023-08-07T15:56:00;100943.0;;;32.5;51.1
72124;BME280;63818;37.134;-8.548;2023-08-07T16:00:46;100946.6;;;32.8;50.6
72124;BME280;63818;37.134;-8.548;2023-08-07T16:05:33;100951.4;;;32.5;51.2
72124;BME280;63818;37.134;-8.548;2023-08-07T16:10:20;100938.9;;;33.2;50.0
72124;BME280;63818;37.134;-8.548;2023-08-07T16:15:06;100925.9;;;33.2;49.2
72124;BME280;63818;37.134;-8.548;2023-08-07T16:19:52;100920.0;;;33.0;49.9
72124;BME280;63818;37.134;-8.548;2023-08-07T16:24:38;100914.5;;;33.3;49.0
72124;BME280;63818;37.134;-8.548;2023-08-07T16:29:24;100899.2;;;33.4;49.1
72124;BME280;63818;37.134;-8.548;2023-08-07T16:34:11;100898.2;;;33.5;48.8
72124;BME280;63818;37.134;-8.548;2023-08-07T16:38:57;100895.8;;;34.2;46.9
72124;BME280;63818;37.134;-8.548;2023-08-07T16:43:43;100884.9;;;34.3;46.5
72124;BME280;63818;37.134;-8.548;2023-08-07T16:48:29;100877.7;;;35.5;43.9
72124;BME280;63818;37.134;-8.548;2023-08-07T16:53:17;100856.4;;;36.3;41.6
72124;BME280;63818;37.134;-8.548;2023-08-07T16:58:04;100870.8;;;36.6;41.1
72124;BME280;63818;37.134;-8.548;2023-08-07T17:02:49;100866.8;;;35.3;43.7
72124;BME280;63818;37.134;-8.548;2023-08-07T17:07:35;100861.7;;;34.2;46.1
72124;BME280;63818;37.134;-8.548;2023-08-07T17:12:22;100847.2;;;34.4;46.0
72124;BME280;63818;37.134;-8.548;2023-08-07T17:17:08;100839.3;;;34.2;46.3
72124;BME280;63818;37.134;-8.548;2023-08-07T17:21:54;100838.0;;;34.1;45.8
72124;BME280;63818;37.134;-8.548;2023-08-07T17:26:40;100835.0;;;33.5;47.7
72124;BME280;63818;37.134;-8.548;2023-08-07T17:31:27;100831.3;;;33.8;46.7
72124;BME280;63818;37.134;-8.548;2023-08-07T17:36:15;100834.1;;;33.8;46.7
72124;BME280;63818;37.134;-8.548;2023-08-07T17:41:00;100828.8;;;33.9;46.2
72124;BME280;63818;37.134;-8.548;2023-08-07T17:45:49;100834.6;;;33.4;47.3
72124;BME280;63818;37.134;-8.548;2023-08-07T17:50:35;100839.6;;;32.6;49.2
72124;BME280;63818;37.134;-8.548;2023-08-07T17:55:21;100838.4;;;33.0;49.0
72124;BME280;63818;37.134;-8.548;2023-08-07T18:00:08;100844.5;;;33.2;48.0
72124;BME280;63818;37.134;-8.548;2023-08-07T18:04:53;100842.6;;;32.5;49.2
72124;BME280;63818;37.134;-8.548;2023-08-07T18:14:26;100845.3;;;32.4;49.9
72124;BME280;63818;37.134;-8.548;2023-08-07T18:19:12;100840.9;;;32.2;50.1
72124;BME280;63818;37.134;-8.548;2023-08-07T18:23:58;100850.2;;;32.8;49.1
72124;BME280;63818;37.134;-8.548;2023-08-07T18:28:44;100853.2;;;32.9;48.4
72124;BME280;63818;37.134;-8.548;2023-08-07T18:33:31;100856.0;;;33.0;47.6
72124;BME280;63818;37.134;-8.548;2023-08-07T18:38:19;100857.5;;;32.6;48.2
72124;BME280;63818;37.134;-8.548;2023-08-07T18:43:05;100861.3;;;32.3;48.9
72124;BME280;63818;37.134;-8.548;2023-08-07T18:47:51;100855.5;;;32.2;48.8
72124;BME280;63818;37.134;-8.548;2023-08-07T18:52:37;100855.0;;;32.1;49.0
72124;BME280;63818;37.134;-8.548;2023-08-07T18:57:22;100867.4;;;31.9;49.7
72124;BME280;63818;37.134;-8.548;2023-08-07T19:02:08;100872.4;;;31.9;49.3
72124;BME280;63818;37.134;-8.548;2023-08-07T19:06:54;100874.9;;;31.6;50.6
72124;BME280;63818;37.134;-8.548;2023-08-07T19:11:40;100877.6;;;31.5;51.1
72124;BME280;63818;37.134;-8.548;2023-08-07T19:16:27;100887.1;;;31.4;51.5
72124;BME280;63818;37.134;-8.548;2023-08-07T19:21:13;100899.2;;;31.2;52.0
72124;BME280;63818;37.134;-8.548;2023-08-07T19:25:59;100892.3;;;30.6;54.0
72124;BME280;63818;37.134;-8.548;2023-08-07T19:30:45;100905.2;;;30.4;55.3
72124;BME280;63818;37.134;-8.548;2023-08-07T19:35:31;100911.4;;;30.6;55.0
72124;BME280;63818;37.134;-8.548;2023-08-07T19:40:17;100916.4;;;30.5;56.0
72124;BME280;63818;37.134;-8.548;2023-08-07T19:45:04;100922.9;;;30.4;55.9
72124;BME280;63818;37.134;-8.548;2023-08-07T19:49:50;100922.7;;;30.5;55.9
72124;BME280;63818;37.134;-8.548;2023-08-07T19:54:36;100929.0;;;30.3;56.1
72124;BME280;63818;37.134;-8.548;2023-08-07T19:59:22;100934.8;;;30.4;55.7
72124;BME280;63818;37.134;-8.548;2023-08-07T20:04:08;100933.5;;;30.4;55.5
72124;BME280;63818;37.134;-8.548;2023-08-07T20:08:54;100935.3;;;30.3;56.2
72124;BME280;63818;37.134;-8.548;2023-08-07T20:13:40;100945.3;;;30.3;55.9
72124;BME280;63818;37.134;-8.548;2023-08-07T20:18:26;100946.6;;;30.1;56.5
72124;BME280;63818;37.134;-8.548;2023-08-07T20:23:12;100954.1;;;30.1;56.5
72124;BME280;63818;37.134;-8.548;2023-08-07T20:27:58;100958.5;;;29.8;57.0
72124;BME280;63818;37.134;-8.548;2023-08-07T20:32:47;100966.9;;;29.6;57.8
72124;BME280;63818;37.134;-8.548;2023-08-07T20:37:33;100960.1;;;29.8;57.4
72124;BME280;63818;37.134;-8.548;2023-08-07T20:42:19;100957.0;;;29.7;57.3
72124;BME280;63818;37.134;-8.548;2023-08-07T20:47:05;100962.5;;;29.8;57.4
72124;BME280;63818;37.134;-8.548;2023-08-07T20:51:52;100968.7;;;29.8;57.2
72124;BME280;63818;37.134;-8.548;2023-08-07T20:56:38;100976.3;;;29.6;58.2
72124;BME280;63818;37.134;-8.548;2023-08-07T21:01:24;100976.0;;;29.6;58.4
72124;BME280;63818;37.134;-8.548;2023-08-07T21:06:10;100989.5;;;29.7;57.9
72124;BME280;63818;37.134;-8.548;2023-08-07T21:10:56;100983.9;;;29.8;57.7
72124;BME280;63818;37.134;-8.548;2023-08-07T21:15:42;100986.7;;;29.7;57.9
72124;BME280;63818;37.134;-8.548;2023-08-07T21:20:28;100989.2;;;29.7;58.1
72124;BME280;63818;37.134;-8.548;2023-08-07T21:25:14;100999.9;;;29.5;58.6
72124;BME280;63818;37.134;-8.548;2023-08-07T21:30:00;101015.2;;;29.4;59.1
72124;BME280;63818;37.134;-8.548;2023-08-07T21:34:47;101013.6;;;29.6;58.7
72124;BME280;63818;37.134;-8.548;2023-08-07T21:39:33;101018.0;;;29.6;58.4
72124;BME280;63818;37.134;-8.548;2023-08-07T21:44:21;101007.7;;;29.6;58.2
72124;BME280;63818;37.134;-8.548;2023-08-07T21:49:07;101010.7;;;29.6;58.0
72124;BME280;63818;37.134;-8.548;2023-08-07T21:53:53;101025.1;;;29.6;58.0
72124;BME280;63818;37.134;-8.548;2023-08-07T21:58:39;101020.8;;;29.5;58.3
72124;BME280;63818;37.134;-8.548;2023-08-07T22:03:25;101014.3;;;29.5;58.6
72124;BME280;63818;37.134;-8.548;2023-08-07T22:08:11;101003.3;;;29.6;58.0
72124;BME280;63818;37.134;-8.548;2023-08-07T22:12:59;101005.4;;;29.5;58.0
72124;BME280;63818;37.134;-8.548;2023-08-07T22:17:45;100998.9;;;29.6;57.7
72124;BME280;63818;37.134;-8.548;2023-08-07T22:22:31;100987.5;;;29.4;58.5
72124;BME280;63818;37.134;-8.548;2023-08-07T22:27:17;100991.6;;;29.5;58.5
72124;BME280;63818;37.134;-8.548;2023-08-07T22:32:04;100992.8;;;29.5;58.6
72124;BME280;63818;37.134;-8.548;2023-08-07T22:36:53;101000.3;;;29.5;59.0
72124;BME280;63818;37.134;-8.548;2023-08-07T22:41:39;100988.8;;;29.4;59.1
72124;BME280;63818;37.134;-8.548;2023-08-07T22:46:25;100983.2;;;29.4;59.5
72124;BME280;63818;37.134;-8.548;2023-08-07T22:51:11;100995.6;;;29.3;60.0
72124;BME280;63818;37.134;-8.548;2023-08-07T22:55:57;100992.2;;;29.2;60.2
72124;BME280;63818;37.134;-8.548;2023-08-07T23:00:43;100995.9;;;29.4;60.2
72124;BME280;63818;37.134;-8.548;2023-08-07T23:05:30;100996.4;;;29.3;59.8
72124;BME280;63818;37.134;-8.548;2023-08-07T23:10:18;100993.0;;;29.2;60.6
72124;BME280;63818;37.134;-8.548;2023-08-07T23:15:05;100987.1;;;29.2;60.6
72124;BME280;63818;37.134;-8.548;2023-08-07T23:19:53;100999.1;;;29.2;60.8
72124;BME280;63818;37.134;-8.548;2023-08-07T23:24:39;100978.8;;;29.2;60.4
72124;BME280;63818;37.134;-8.548;2023-08-07T23:29:25;100993.4;;;29.2;60.7
72124;BME280;63818;37.134;-8.548;2023-08-07T23:34:11;100984.8;;;29.2;60.6
72124;BME280;63818;37.134;-8.548;2023-08-07T23:38:57;100989.2;;;29.2;60.8
72124;BME280;63818;37.134;-8.548;2023-08-07T23:43:43;100984.9;;;29.0;61.4
72124;BME280;63818;37.134;-8.548;2023-08-07T23:48:29;100983.9;;;28.9;61.7
72124;BME280;63818;37.134;-8.548;2023-08-07T23:53:15;100974.9;;;28.8;62.0
72124;BME280;63818;37.134;-8.548;2023-08-07T23:58:01;100984.9;;;28.7;62.2
